Time;durP1;ratioP1;P1;durP2;ratioP2;P2;SDS_P1;SDS_P2;PMS_P1;PMS_P2;Temp;Humidity;BMP_temperature;BMP_pressure;BME280_temperature;BME280_humidity;BME280_pressure;Samples;Min_cycle;Max_cycle;Signal;HPM_P1;HPM_P2
2023/05/31 00:00:03;;;;;;;23.20;11.18;;;;;;;;;;2011574;29;20041;-75
2023/05/31 00:01:24;;;;;;;14.75;8.98;;;;;;;;;;2009475;29;20033;-75
2023/05/31 00:02:45;;;;;;;24.70;11.52;;;;;;;;;;2014797;29;20120;-75
2023/05/31 00:04:07;;;;;;;23.65;11.75;;;;;;;;;;2018386;29;20335;-76
2023/05/31 00:05:28;;;;;;;17.30;10.07;;;;;;;;;;2019103;29;20503;-76
2023/05/31 00:06:49;;;;;;;25.52;12.55;;;;;;;;;;2012516;29;20041;-75
2023/05/31 00:08:10;;;;;;;20.25;11.15;;;;;;;;;;2013349;29;20125;-76
2023/05/31 00:09:31;;;;;;;35.90;14.40;;;;;;;;;;2013617;29;20470;-75
2023/05/31 00:10:52;;;;;;;25.25;11.32;;;;;;;;;;2014923;29;20136;-75
2023/05/31 00:12:13;;;;;;;27.98;12.82;;;;;;;;;;2016086;29;20512;-75
2023/05/31 00:13:34;;;;;;;21.73;10.90;;;;;;;;;;2015576;29;20184;-74
2023/05/31 00:14:55;;;;;;;18.35;10.38;;;;;;;;;;2019024;29;20052;-75
2023/05/31 00:16:16;;;;;;;18.35;10.32;;;;;;;;;;2019288;29;20032;-75
2023/05/31 00:17:37;;;;;;;19.55;10.95;;;;;;;;;;2019753;29;20378;-75
2023/05/31 00:18:57;;;;;;;35.50;14.52;;;;;;;;;;2015424;29;20037;-75
2023/05/31 00:20:18;;;;;;;23.13;11.00;;;;;;;;;;2017278;29;20501;-75
2023/05/31 00:21:39;;;;;;;22.20;10.77;;;;;;;;;;2020989;29;20195;-75
2023/05/31 00:23:00;;;;;;;21.02;11.40;;;;;;;;;;2021706;29;20082;-75
2023/05/31 00:24:21;;;;;;;30.00;13.13;;;;;;;;;;2018910;29;20342;-75
2023/05/31 00:25:42;;;;;;;24.20;11.88;;;;;;;;;;2016463;29;20049;-75
2023/05/31 00:27:03;;;;;;;23.95;11.77;;;;;;;;;;2019528;29;20093;-74
2023/05/31 00:28:24;;;;;;;28.17;12.05;;;;;;;;;;2018132;29;20841;-74
2023/05/31 00:29:45;;;;;;;19.10;10.52;;;;;;;;;;2022386;29;20044;-75
2023/05/31 00:31:06;;;;;;;26.05;11.55;;;;;;;;;;2013328;29;20045;-75
2023/05/31 00:32:27;;;;;;;15.10;10.13;;;;;;;;;;2022180;29;20092;-75
2023/05/31 00:33:48;;;;;;;20.45;11.00;;;;;;;;;;2021929;29;20040;-75
2023/05/31 00:35:08;;;;;;;15.00;9.95;;;;;;;;;;2020420;29;20040;-75
2023/05/31 00:36:30;;;;;;;25.08;11.00;;;;;;;;;;2018321;29;20179;-75
2023/05/31 00:37:51;;;;;;;21.25;10.75;;;;;;;;;;2021317;29;20546;-74
2023/05/31 00:39:12;;;;;;;26.65;12.02;;;;;;;;;;2020725;29;20141;-75
2023/05/31 00:40:33;;;;;;;24.50;12.75;;;;;;;;;;2020080;29;20065;-75
2023/05/31 00:41:55;;;;;;;31.15;12.20;;;;;;;;;;2015892;29;20128;-74
2023/05/31 00:43:15;;;;;;;27.17;12.50;;;;;;;;;;2018003;29;20580;-74
2023/05/31 00:44:36;;;;;;;23.80;12.05;;;;;;;;;;2015067;29;20111;-74
2023/05/31 00:45:57;;;;;;;21.90;10.80;;;;;;;;;;2018035;29;20148;-75
2023/05/31 00:47:18;;;;;;;34.13;13.85;;;;;;;;;;2006068;29;20640;-76
2023/05/31 00:48:42;;;;;;;15.95;9.60;;;;;;;;;;2016722;29;20036;-75
2023/05/31 00:50:03;;;;;;;26.77;12.43;;;;;;;;;;2015348;29;20036;-75
2023/05/31 00:51:24;;;;;;;29.70;12.48;;;;;;;;;;2015494;29;20037;-75
2023/05/31 00:52:47;;;;;;;38.75;14.65;;;;;;;;;;2014481;29;20043;-75
2023/05/31 00:54:10;;;;;;;25.73;11.13;;;;;;;;;;2015867;29;20041;-75
2023/05/31 00:55:31;;;;;;;;;;;;;;;;;;2008769;29;20060;-75
2023/05/31 00:56:52;;;;;;;23.27;11.45;;;;;;;;;;2016753;29;19923;-74
2023/05/31 00:58:13;;;;;;;23.83;11.88;;;;;;;;;;2007824;29;20097;-75
2023/05/31 00:59:33;;;;;;;27.15;12.57;;;;;;;;;;2016115;29;20028;-75
2023/05/31 01:00:55;;;;;;;23.35;11.13;;;;;;;;;;2019178;29;20140;-75
2023/05/31 01:02:18;;;;;;;26.27;12.00;;;;;;;;;;2012934;29;20041;-75
2023/05/31 01:03:40;;;;;;;20.60;10.75;;;;;;;;;;2021150;29;20428;-75
2023/05/31 01:05:01;;;;;;;12.20;8.77;;;;;;;;;;2023778;29;20052;-76
2023/05/31 01:06:23;;;;;;;21.08;11.45;;;;;;;;;;2024808;29;20033;-76
2023/05/31 01:07:44;;;;;;;17.10;10.27;;;;;;;;;;2023913;29;20076;-76
2023/05/31 01:09:07;;;;;;;16.23;9.25;;;;;;;;;;2024807;29;20037;-75
2023/05/31 01:10:28;;;;;;;20.55;10.75;;;;;;;;;;2023017;29;20461;-74
2023/05/31 01:11:52;;;;;;;15.80;9.63;;;;;;;;;;2017364;29;20093;-75
2023/05/31 01:13:35;;;;;;;19.25;10.27;;;;;;;;;;2013281;29;20044;-75
2023/05/31 01:15:08;;;;;;;23.90;11.07;;;;;;;;;;2014905;29;20576;-75
2023/05/31 01:16:36;;;;;;;19.20;11.10;;;;;;;;;;2022785;29;20040;-75
2023/05/31 01:18:00;;;;;;;20.02;10.48;;;;;;;;;;2022494;29;20033;-74
2023/05/31 01:19:36;;;;;;;17.45;10.00;;;;;;;;;;2022464;29;20112;-75
2023/05/31 01:21:01;;;;;;;14.20;9.68;;;;;;;;;;2022057;29;20044;-75
2023/05/31 01:22:47;;;;;;;24.25;12.50;;;;;;;;;;2015645;29;20087;-75
2023/05/31 01:24:19;;;;;;;15.43;8.95;;;;;;;;;;2021854;29;20029;-75
2023/05/31 01:25:56;;;;;;;20.65;11.07;;;;;;;;;;2012807;29;20043;-75
2023/05/31 01:27:17;;;;;;;17.27;10.43;;;;;;;;;;2021737;29;20096;-75
2023/05/31 01:28:40;;;;;;;30.52;13.27;;;;;;;;;;2011163;29;20041;-75
2023/05/31 01:30:03;;;;;;;22.70;11.57;;;;;;;;;;2017733;29;20051;-75
2023/05/31 01:31:24;;;;;;;21.95;12.02;;;;;;;;;;2011690;29;20040;-77
2023/05/31 01:32:45;;;;;;;22.77;11.23;;;;;;;;;;2018319;29;20113;-75
2023/05/31 01:34:06;;;;;;;23.70;11.45;;;;;;;;;;2019849;29;20036;-75
2023/05/31 01:35:27;;;;;;;20.17;10.35;;;;;;;;;;2018879;29;20493;-75
2023/05/31 01:36:48;;;;;;;18.70;10.80;;;;;;;;;;2020063;29;20032;-75
2023/05/31 01:38:09;;;;;;;21.38;11.98;;;;;;;;;;2021292;29;20029;-75
2023/05/31 01:39:30;;;;;;;20.40;11.15;;;;;;;;;;2015398;29;20036;-75
2023/05/31 01:40:51;;;;;;;19.65;11.07;;;;;;;;;;2019296;29;20024;-75
2023/05/31 01:42:13;;;;;;;20.65;11.32;;;;;;;;;;2020599;29;20103;-75
2023/05/31 01:43:35;;;;;;;19.48;11.40;;;;;;;;;;2013396;29;20037;-75
2023/05/31 01:44:56;;;;;;;23.20;12.23;;;;;;;;;;2018962;29;20040;-75
2023/05/31 01:46:18;;;;;;;20.77;10.50;;;;;;;;;;2014610;29;20602;-75
2023/05/31 01:47:40;;;;;;;22.70;10.80;;;;;;;;;;2010406;29;20048;-75
2023/05/31 01:49:01;;;;;;;24.73;11.32;;;;;;;;;;2016671;29;20036;-75
2023/05/31 01:50:23;;;;;;;24.52;11.35;;;;;;;;;;2010429;29;20117;-75
2023/05/31 01:51:44;;;;;;;33.90;13.02;;;;;;;;;;2014321;29;20033;-75
2023/05/31 01:53:06;;;;;;;28.88;12.45;;;;;;;;;;2017013;29;20037;-75
2023/05/31 01:54:26;;;;;;;23.15;11.82;;;;;;;;;;2017934;29;20033;-75
2023/05/31 01:55:47;;;;;;;25.55;12.13;;;;;;;;;;2009726;29;20053;-75
2023/05/31 01:57:09;;;;;;;21.67;11.07;;;;;;;;;;2013964;29;20105;-76
2023/05/31 01:58:30;;;;;;;18.80;11.05;;;;;;;;;;2011091;29;20729;-75
2023/05/31 01:59:51;;;;;;;23.30;11.98;;;;;;;;;;2018795;29;20140;-75
2023/05/31 02:01:13;;;;;;;19.15;11.15;;;;;;;;;;2021031;29;20100;-75
2023/05/31 02:02:34;;;;;;;17.70;10.75;;;;;;;;;;2021761;29;20040;-75
2023/05/31 02:03:55;;;;;;;17.95;11.43;;;;;;;;;;2020865;29;20041;-74
2023/05/31 02:05:16;;;;;;;22.38;12.10;;;;;;;;;;2022332;29;20758;-74
2023/05/31 02:06:37;;;;;;;19.85;10.98;;;;;;;;;;2023089;29;20064;-76
2023/05/31 02:07:58;;;;;;;21.00;11.00;;;;;;;;;;2020612;29;20029;-75
2023/05/31 02:09:20;;;;;;;18.75;10.20;;;;;;;;;;2013889;29;20513;-75
2023/05/31 02:10:41;;;;;;;21.35;11.27;;;;;;;;;;2014458;29;20045;-74
2023/05/31 02:12:02;;;;;;;22.17;11.63;;;;;;;;;;2013319;29;20049;-74
2023/05/31 02:13:30;;;;;;;18.85;10.52;;;;;;;;;;2020836;29;20437;-74
2023/05/31 02:14:51;;;;;;;29.48;13.75;;;;;;;;;;2016453;29;20042;-75
2023/05/31 02:16:12;;;;;;;19.80;11.52;;;;;;;;;;2009350;29;20097;-75
2023/05/31 02:17:33;;;;;;;24.80;11.95;;;;;;;;;;2016099;29;20080;-75
2023/05/31 02:18:56;;;;;;;36.60;15.50;;;;;;;;;;2015259;29;20033;-75
2023/05/31 02:20:17;;;;;;;26.75;12.30;;;;;;;;;;2016324;29;20508;-75
2023/05/31 02:21:38;;;;;;;29.40;13.30;;;;;;;;;;2007814;29;20037;-74
2023/05/31 02:22:59;;;;;;;24.50;12.63;;;;;;;;;;2013612;29;20041;-75
2023/05/31 02:24:20;;;;;;;23.20;11.82;;;;;;;;;;2020370;29;20032;-75
2023/05/31 02:25:44;;;;;;;15.52;10.70;;;;;;;;;;2014913;29;20455;-75
2023/05/31 02:27:05;;;;;;;25.85;12.90;;;;;;;;;;2015962;29;20041;-75
2023/05/31 02:28:26;;;;;;;16.30;10.52;;;;;;;;;;2015127;29;20038;-75
2023/05/31 02:29:47;;;;;;;23.50;12.27;;;;;;;;;;2011358;29;20413;-75
2023/05/31 02:31:08;;;;;;;17.55;10.80;;;;;;;;;;2020710;29;20450;-75
2023/05/31 02:32:28;;;;;;;19.08;11.07;;;;;;;;;;2019077;29;20041;-75
2023/05/31 02:33:50;;;;;;;22.20;11.45;;;;;;;;;;2022361;29;20033;-75
2023/05/31 02:35:11;;;;;;;23.30;12.13;;;;;;;;;;2020918;29;20041;-75
2023/05/31 02:36:32;;;;;;;22.25;12.30;;;;;;;;;;2021465;29;20100;-75
2023/05/31 02:37:52;;;;;;;24.35;12.07;;;;;;;;;;2015083;29;20037;-76
2023/05/31 02:39:13;;;;;;;22.20;11.95;;;;;;;;;;2014058;29;20101;-77
2023/05/31 02:40:35;;;;;;;24.17;13.23;;;;;;;;;;2019154;29;20109;-76
2023/05/31 02:41:56;;;;;;;20.10;11.63;;;;;;;;;;2012983;29;20093;-75
2023/05/31 02:43:17;;;;;;;20.08;11.70;;;;;;;;;;2018729;29;20401;-75
2023/05/31 02:44:38;;;;;;;22.17;11.95;;;;;;;;;;2012162;29;20037;-75
2023/05/31 02:46:01;;;;;;;25.73;12.75;;;;;;;;;;2017793;29;20036;-75
2023/05/31 02:47:22;;;;;;;18.88;10.93;;;;;;;;;;2021841;29;20032;-75
2023/05/31 02:48:43;;;;;;;23.13;12.40;;;;;;;;;;2020786;29;20493;-75
2023/05/31 02:50:05;;;;;;;16.92;10.90;;;;;;;;;;2023743;29;20088;-75
2023/05/31 02:51:26;;;;;;;22.48;11.70;;;;;;;;;;2021849;29;20032;-75
2023/05/31 02:52:46;;;;;;;20.83;11.02;;;;;;;;;;2014181;29;20422;-75
2023/05/31 02:54:07;;;;;;;22.02;12.02;;;;;;;;;;2011805;29;20061;-75
2023/05/31 02:55:29;;;;;;;21.70;12.05;;;;;;;;;;2019235;29;20666;-75
2023/05/31 02:56:50;;;;;;;26.63;11.85;;;;;;;;;;2017574;29;20040;-75
2023/05/31 02:58:11;;;;;;;21.73;11.88;;;;;;;;;;2022082;29;20136;-75
2023/05/31 02:59:32;;;;;;;17.90;11.15;;;;;;;;;;2023812;29;20029;-71
2023/05/31 03:00:53;;;;;;;22.02;12.18;;;;;;;;;;2022762;29;20045;-71
2023/05/31 03:02:14;;;;;;;22.65;12.82;;;;;;;;;;2019952;29;20036;-71
2023/05/31 03:03:35;;;;;;;27.38;11.98;;;;;;;;;;2022220;29;20332;-71
2023/05/31 03:04:56;;;;;;;22.67;13.27;;;;;;;;;;2014159;29;20045;-70
2023/05/31 03:06:19;;;;;;;21.48;12.52;;;;;;;;;;2005209;29;20121;-71
2023/05/31 03:07:40;;;;;;;;;;;;;;;;;;2013635;29;20088;-71
2023/05/31 03:09:00;;;;;;;17.65;11.20;;;;;;;;;;2014318;29;19927;-70
2023/05/31 03:10:21;;;;;;;21.98;11.90;;;;;;;;;;2013439;29;20029;-71
2023/05/31 03:11:45;;;;;;;26.85;12.88;;;;;;;;;;2013250;29;20105;-70
2023/05/31 03:13:06;;;;;;;21.23;12.25;;;;;;;;;;2013508;29;20040;-70
2023/05/31 03:14:27;;;;;;;18.05;10.85;;;;;;;;;;2006654;29;20504;-70
2023/05/31 03:15:48;;;;;;;30.98;14.32;;;;;;;;;;2006113;29;20092;-71
2023/05/31 03:17:09;;;;;;;24.38;12.55;;;;;;;;;;2010702;29;21342;-70
2023/05/31 03:18:29;;;;;;;26.27;13.95;;;;;;;;;;2012976;29;20425;-70
2023/05/31 03:19:50;;;;;;;27.45;13.32;;;;;;;;;;2005650;29;20041;-71
2023/05/31 03:21:11;;;;;;;19.42;11.70;;;;;;;;;;2006166;29;20106;-70
2023/05/31 03:22:32;;;;;;;20.30;11.70;;;;;;;;;;2001547;29;20438;-71
2023/05/31 03:23:53;;;;;;;24.48;13.77;;;;;;;;;;2001999;29;20049;-71
2023/05/31 03:25:14;;;;;;;26.83;13.73;;;;;;;;;;2005138;29;20101;-71
2023/05/31 03:26:35;;;;;;;27.70;14.02;;;;;;;;;;2006424;29;20094;-71
2023/05/31 03:27:57;;;;;;;23.10;13.77;;;;;;;;;;2011705;29;20033;-71
2023/05/31 03:29:18;;;;;;;25.38;13.00;;;;;;;;;;2011694;29;20389;-70
2023/05/31 03:30:38;;;;;;;23.75;12.68;;;;;;;;;;2014803;29;20048;-73
2023/05/31 03:31:59;;;;;;;22.17;12.63;;;;;;;;;;2016861;29;20430;-71
2023/05/31 03:33:21;;;;;;;28.63;13.43;;;;;;;;;;2011021;29;20045;-71
2023/05/31 03:34:42;;;;;;;28.83;14.60;;;;;;;;;;2006384;29;20564;-70
2023/05/31 03:36:03;;;;;;;27.92;13.90;;;;;;;;;;2008369;29;20057;-70
2023/05/31 03:37:24;;;;;;;45.67;16.38;;;;;;;;;;2001374;29;20510;-71
2023/05/31 03:38:45;;;;;;;21.90;12.70;;;;;;;;;;2012052;29;20033;-71
2023/05/31 03:40:06;;;;;;;25.83;12.98;;;;;;;;;;2013123;29;20033;-70
2023/05/31 03:41:27;;;;;;;27.53;13.60;;;;;;;;;;2011951;29;20081;-70
2023/05/31 03:42:48;;;;;;;22.85;13.00;;;;;;;;;;2007379;29;20441;-71
2023/05/31 03:44:09;;;;;;;24.13;12.85;;;;;;;;;;2012108;29;20092;-70
2023/05/31 03:45:30;;;;;;;25.40;12.50;;;;;;;;;;2010367;29;20049;-71
2023/05/31 03:46:51;;;;;;;27.95;13.35;;;;;;;;;;2005382;29;20589;-70
2023/05/31 03:48:12;;;;;;;29.83;14.47;;;;;;;;;;2012005;29;20061;-70
2023/05/31 03:49:33;;;;;;;25.15;13.32;;;;;;;;;;2009621;29;20048;-70
2023/05/31 03:50:55;;;;;;;21.50;13.13;;;;;;;;;;2004365;29;20400;-71
2023/05/31 03:52:16;;;;;;;29.15;13.18;;;;;;;;;;2010225;29;20049;-70
2023/05/31 03:53:37;;;;;;;30.80;14.40;;;;;;;;;;2007991;29;20089;-70
2023/05/31 03:54:59;;;;;;;35.20;15.68;;;;;;;;;;2008578;29;20041;-70
2023/05/31 03:56:20;;;;;;;31.70;14.32;;;;;;;;;;2007715;29;20071;-70
2023/05/31 03:57:41;;;;;;;20.23;12.63;;;;;;;;;;2013583;29;20088;-70
2023/05/31 03:59:03;;;;;;;25.13;13.63;;;;;;;;;;2005017;29;20398;-70
2023/05/31 04:00:24;;;;;;;27.00;12.75;;;;;;;;;;2003585;29;20550;-71
2023/05/31 04:01:45;;;;;;;31.20;14.10;;;;;;;;;;2007612;29;20033;-71
2023/05/31 04:03:06;;;;;;;23.23;12.13;;;;;;;;;;2014506;29;20029;-71
2023/05/31 04:04:27;;;;;;;24.27;13.52;;;;;;;;;;2011469;29;20061;-70
2023/05/31 04:05:47;;;;;;;33.25;14.25;;;;;;;;;;2009520;29;20041;-71
2023/05/31 04:07:08;;;;;;;28.33;12.40;;;;;;;;;;2017824;29;20516;-70
2023/05/31 04:08:29;;;;;;;26.73;13.65;;;;;;;;;;2020263;29;20044;-69
2023/05/31 04:09:50;;;;;;;23.10;12.95;;;;;;;;;;2022455;29;20048;-71
2023/05/31 04:11:11;;;;;;;24.30;12.73;;;;;;;;;;2020032;29;20477;-70
2023/05/31 04:12:32;;;;;;;28.30;13.63;;;;;;;;;;2018539;29;20130;-71
2023/05/31 04:13:53;;;;;;;28.67;13.80;;;;;;;;;;2019157;29;20259;-71
2023/05/31 04:15:14;;;;;;;31.85;14.13;;;;;;;;;;2022299;29;20036;-71
2023/05/31 04:16:35;;;;;;;23.60;13.55;;;;;;;;;;2023177;29;20125;-71
2023/05/31 04:17:56;;;;;;;25.85;14.07;;;;;;;;;;2020312;29;20040;-71
2023/05/31 04:19:17;;;;;;;33.10;14.40;;;;;;;;;;2017162;29;20029;-70
2023/05/31 04:20:38;;;;;;;34.55;15.38;;;;;;;;;;2015978;29;20511;-70
2023/05/31 04:21:59;;;;;;;29.73;14.23;;;;;;;;;;2012307;29;20081;-71
2023/05/31 04:23:20;;;;;;;26.17;14.18;;;;;;;;;;2012266;29;20038;-70
2023/05/31 04:24:41;;;;;;;29.53;14.20;;;;;;;;;;2011762;29;20029;-71
2023/05/31 04:26:02;;;;;;;24.63;13.55;;;;;;;;;;2010339;29;20444;-71
2023/05/31 04:27:25;;;;;;;42.25;16.48;;;;;;;;;;2016503;29;20060;-71
2023/05/31 04:28:51;;;;;;;32.38;14.32;;;;;;;;;;2016853;29;20047;-70
2023/05/31 04:30:12;;;;;;;29.35;14.20;;;;;;;;;;2018455;29;20036;-72
2023/05/31 04:31:36;;;;;;;24.48;13.15;;;;;;;;;;2013883;29;20049;-72
2023/05/31 04:32:57;;;;;;;28.63;14.20;;;;;;;;;;2013752;29;20513;-72
2023/05/31 04:34:18;;;;;;;29.17;14.40;;;;;;;;;;2011524;29;20041;-72
2023/05/31 04:35:40;;;;;;;27.83;13.43;;;;;;;;;;2016562;29;20501;-72
2023/05/31 04:37:03;;;;;;;28.23;14.27;;;;;;;;;;2018641;29;20048;-72
2023/05/31 04:38:27;;;;;;;39.10;17.13;;;;;;;;;;2016233;29;20044;-72
2023/05/31 04:39:48;;;;;;;28.98;14.68;;;;;;;;;;2015641;29;20045;-72
2023/05/31 04:41:10;;;;;;;27.38;14.45;;;;;;;;;;2016173;29;20230;-72
2023/05/31 04:42:30;;;;;;;28.80;12.85;;;;;;;;;;2021182;29;20118;-72
2023/05/31 04:43:53;;;;;;;26.33;13.05;;;;;;;;;;2012425;29;20270;-72
2023/05/31 04:45:15;;;;;;;;;;;;;;;;;;2010184;29;20041;-72
2023/05/31 04:46:36;;;;;;;38.03;16.80;;;;;;;;;;2004336;29;20348;-72
2023/05/31 04:47:57;;;;;;;42.35;17.02;;;;;;;;;;2010076;29;20511;-72
2023/05/31 04:49:18;;;;;;;44.85;16.98;;;;;;;;;;2007562;29;20045;-72
2023/05/31 04:50:40;;;;;;;26.92;13.70;;;;;;;;;;2017770;29;20032;-72
2023/05/31 04:52:01;;;;;;;33.28;14.68;;;;;;;;;;2017179;29;20032;-72
2023/05/31 04:53:23;;;;;;;32.15;14.75;;;;;;;;;;2009518;29;20132;-72
2023/05/31 04:54:44;;;;;;;33.50;14.77;;;;;;;;;;2014162;29;20020;-72
2023/05/31 04:56:07;;;;;;;31.38;15.55;;;;;;;;;;2016265;29;20053;-73
2023/05/31 04:57:28;;;;;;;33.95;16.15;;;;;;;;;;2018596;29;20040;-72
2023/05/31 04:58:49;;;;;;;30.35;14.00;;;;;;;;;;2013050;29;20074;-72
2023/05/31 05:00:15;;;;;;;30.65;13.48;;;;;;;;;;2018229;29;20096;-72
2023/05/31 05:01:37;;;;;;;28.83;13.98;;;;;;;;;;2013499;29;20037;-72
2023/05/31 05:02:58;;;;;;;27.55;14.55;;;;;;;;;;2019017;29;20040;-72
2023/05/31 05:04:19;;;;;;;32.20;13.50;;;;;;;;;;2016759;29;20116;-72
2023/05/31 05:05:40;;;;;;;29.50;14.95;;;;;;;;;;2014682;29;20311;-72
2023/05/31 05:07:01;;;;;;;22.70;12.35;;;;;;;;;;2019160;29;20041;-72
2023/05/31 05:08:22;;;;;;;34.53;16.05;;;;;;;;;;2011190;29;20139;-72
2023/05/31 05:09:43;;;;;;;28.52;13.60;;;;;;;;;;2008772;29;20038;-72
2023/05/31 05:11:05;;;;;;;36.70;15.32;;;;;;;;;;2018324;29;20176;-72
2023/05/31 05:12:26;;;;;;;25.48;14.75;;;;;;;;;;2022343;29;20037;-72
2023/05/31 05:13:46;;;;;;;31.70;15.20;;;;;;;;;;2020146;29;20128;-73
2023/05/31 05:15:08;;;;;;;35.65;16.25;;;;;;;;;;2016847;29;20717;-72
2023/05/31 05:16:29;;;;;;;29.45;14.27;;;;;;;;;;2019056;29;20056;-73
2023/05/31 05:17:50;;;;;;;33.45;14.73;;;;;;;;;;2023235;29;20433;-72
2023/05/31 05:19:11;;;;;;;29.67;15.20;;;;;;;;;;2016021;29;20041;-72
2023/05/31 05:20:32;;;;;;;29.85;15.35;;;;;;;;;;2019667;29;20096;-72
2023/05/31 05:21:54;;;;;;;30.83;15.15;;;;;;;;;;2022248;29;20065;-72
2023/05/31 05:23:15;;;;;;;29.50;14.40;;;;;;;;;;2021309;29;20036;-72
2023/05/31 05:24:35;;;;;;;27.30;15.30;;;;;;;;;;2021956;29;20032;-73
2023/05/31 05:25:56;;;;;;;28.88;14.45;;;;;;;;;;2019937;29;20095;-73
2023/05/31 05:27:17;;;;;;;31.15;15.00;;;;;;;;;;2014060;29;20048;-73
2023/05/31 05:28:38;;;;;;;31.85;15.57;;;;;;;;;;2013179;29;20477;-73
2023/05/31 05:29:59;;;;;;;27.27;15.25;;;;;;;;;;2018683;29;20036;-73
2023/05/31 05:31:20;;;;;;;31.33;15.90;;;;;;;;;;2022193;29;20528;-71
2023/05/31 05:32:41;;;;;;;30.02;15.45;;;;;;;;;;2021105;29;20048;-71
2023/05/31 05:34:02;;;;;;;36.88;16.30;;;;;;;;;;2020306;29;20096;-72
2023/05/31 05:35:23;;;;;;;33.00;15.05;;;;;;;;;;2020212;29;20037;-72
2023/05/31 05:36:44;;;;;;;31.75;15.55;;;;;;;;;;2018359;29;20496;-72
2023/05/31 05:38:05;;;;;;;30.25;14.90;;;;;;;;;;2009287;29;20041;-71
2023/05/31 05:39:26;;;;;;;35.78;15.48;;;;;;;;;;2015978;29;21201;-71
2023/05/31 05:40:47;;;;;;;38.15;16.65;;;;;;;;;;2017455;29;20081;-72
2023/05/31 05:42:08;;;;;;;29.15;16.40;;;;;;;;;;2018221;29;20120;-71
2023/05/31 05:43:30;;;;;;;37.75;16.33;;;;;;;;;;2021826;29;20676;-71
2023/05/31 05:44:50;;;;;;;35.63;15.73;;;;;;;;;;2021589;29;20040;-71
2023/05/31 05:46:11;;;;;;;28.40;14.38;;;;;;;;;;2020493;29;20056;-72
2023/05/31 05:47:33;;;;;;;26.55;13.38;;;;;;;;;;2029030;29;20032;-72
2023/05/31 05:48:54;;;;;;;23.60;13.68;;;;;;;;;;2024921;29;20594;-70
2023/05/31 05:50:15;;;;;;;28.73;14.65;;;;;;;;;;2023178;29;20084;-70
2023/05/31 05:51:36;;;;;;;21.30;13.85;;;;;;;;;;2010743;29;20034;-71
2023/05/31 05:52:57;;;;;;;27.15;14.18;;;;;;;;;;2022193;29;20032;-72
2023/05/31 05:54:18;;;;;;;27.08;14.70;;;;;;;;;;2024633;29;20032;-74
2023/05/31 05:55:39;;;;;;;25.40;14.35;;;;;;;;;;2021648;29;20473;-71
2023/05/31 05:56:59;;;;;;;26.52;14.07;;;;;;;;;;2015728;29;20093;-72
2023/05/31 05:58:21;;;;;;;29.75;14.65;;;;;;;;;;2016578;29;20049;-68
2023/05/31 05:59:42;;;;;;;32.58;15.82;;;;;;;;;;2017951;29;20361;-72
2023/05/31 06:01:03;;;;;;;33.55;16.25;;;;;;;;;;2019758;29;20029;-71
2023/05/31 06:02:24;;;;;;;40.13;17.20;;;;;;;;;;2018686;29;20096;-77
2023/05/31 06:03:49;;;;;;;32.33;16.63;;;;;;;;;;2011180;29;20037;-72
2023/05/31 06:05:09;;;;;;;31.42;15.48;;;;;;;;;;2017396;29;20076;-72
2023/05/31 06:06:31;;;;;;;33.47;15.50;;;;;;;;;;2013086;29;20053;-72
2023/05/31 06:07:53;;;;;;;30.45;15.32;;;;;;;;;;2020701;29;20124;-72
2023/05/31 06:09:14;;;;;;;30.85;15.32;;;;;;;;;;2025790;29;20043;-72
2023/05/31 06:10:34;;;;;;;31.58;16.45;;;;;;;;;;2013935;29;20049;-72
2023/05/31 06:11:55;;;;;;;34.53;14.50;;;;;;;;;;2021569;29;20092;-72
2023/05/31 06:13:16;;;;;;;32.33;16.20;;;;;;;;;;2022680;29;20432;-72
2023/05/31 06:14:37;;;;;;;43.10;19.02;;;;;;;;;;2010810;29;20073;-72
2023/05/31 06:15:58;;;;;;;31.30;15.40;;;;;;;;;;2012796;29;20492;-72
2023/05/31 06:17:19;;;;;;;26.90;14.93;;;;;;;;;;2018043;29;20096;-72
2023/05/31 06:18:40;;;;;;;27.65;14.75;;;;;;;;;;2012421;29;20709;-71
2023/05/31 06:20:03;;;;;;;35.53;16.48;;;;;;;;;;2009167;29;20093;-72
2023/05/31 06:21:23;;;;;;;41.72;17.33;;;;;;;;;;2005704;29;20037;-72
2023/05/31 06:22:44;;;;;;;34.50;15.25;;;;;;;;;;2015879;29;20036;-72
2023/05/31 06:24:05;;;;;;;31.00;16.70;;;;;;;;;;2018492;29;20041;-73
2023/05/31 06:25:26;;;;;;;28.38;15.00;;;;;;;;;;2019019;29;20349;-72
2023/05/31 06:26:47;;;;;;;34.72;17.20;;;;;;;;;;2008854;29;20911;-72
2023/05/31 06:28:08;;;;;;;29.90;15.55;;;;;;;;;;2013981;29;20053;-72
2023/05/31 06:29:29;;;;;;;33.03;14.50;;;;;;;;;;2013873;29;20048;-72
2023/05/31 06:30:50;;;;;;;40.03;16.67;;;;;;;;;;2015215;29;20694;-72
2023/05/31 06:32:11;;;;;;;27.48;13.27;;;;;;;;;;2012658;29;20033;-72
2023/05/31 06:33:33;;;;;;;42.10;16.13;;;;;;;;;;2015130;29;20037;-73
2023/05/31 06:34:54;;;;;;;35.25;16.75;;;;;;;;;;2013149;29;20378;-72
2023/05/31 06:36:15;;;;;;;33.00;15.60;;;;;;;;;;2012627;29;20071;-72
2023/05/31 06:37:36;;;;;;;40.67;16.77;;;;;;;;;;2021557;29;20528;-72
2023/05/31 06:38:57;;;;;;;33.73;14.83;;;;;;;;;;2018450;29;20037;-72
2023/05/31 06:40:18;;;;;;;34.42;16.08;;;;;;;;;;2018074;29;20455;-71
2023/05/31 06:41:39;;;;;;;32.90;15.80;;;;;;;;;;2016214;29;20525;-71
2023/05/31 06:43:00;;;;;;;33.15;15.30;;;;;;;;;;2018457;29;20092;-72
2023/05/31 06:44:21;;;;;;;31.45;14.18;;;;;;;;;;2010336;29;20773;-71
2023/05/31 06:45:42;;;;;;;27.30;13.68;;;;;;;;;;2021650;29;20040;-71
2023/05/31 06:47:03;;;;;;;28.90;14.85;;;;;;;;;;2022012;29;20493;-71
2023/05/31 06:48:24;;;;;;;21.45;13.43;;;;;;;;;;2024790;29;20040;-72
2023/05/31 06:49:44;;;;;;;27.95;14.20;;;;;;;;;;2022817;29;20430;-69
2023/05/31 06:51:06;;;;;;;29.48;12.77;;;;;;;;;;2014411;29;20132;-72
2023/05/31 06:52:26;;;;;;;21.92;12.88;;;;;;;;;;2010486;29;20074;-71
2023/05/31 06:53:48;;;;;;;25.80;12.85;;;;;;;;;;2022464;29;20044;-71
2023/05/31 06:55:08;;;;;;;25.02;12.48;;;;;;;;;;2016922;29;20437;-71
2023/05/31 06:56:29;;;;;;;24.80;12.70;;;;;;;;;;2016208;29;20052;-70
2023/05/31 06:57:50;;;;;;;31.33;14.73;;;;;;;;;;2019309;29;20028;-69
2023/05/31 06:59:11;;;;;;;32.00;14.18;;;;;;;;;;2015934;29;20033;-70
2023/05/31 07:00:32;;;;;;;21.80;12.68;;;;;;;;;;2015538;29;20025;-70
2023/05/31 07:01:54;;;;;;;24.77;14.10;;;;;;;;;;2020819;29;20033;-70
2023/05/31 07:03:14;;;;;;;25.27;13.77;;;;;;;;;;2022569;29;20040;-70
2023/05/31 07:04:35;;;;;;;24.05;12.73;;;;;;;;;;2008404;29;20045;-69
2023/05/31 07:05:56;;;;;;;31.17;14.18;;;;;;;;;;2016435;29;20041;-70
2023/05/31 07:07:17;;;;;;;28.98;14.07;;;;;;;;;;2012975;29;20045;-71
2023/05/31 07:08:38;;;;;;;30.58;13.18;;;;;;;;;;2020209;29;20050;-70
2023/05/31 07:10:00;;;;;;;25.35;12.80;;;;;;;;;;2022576;29;20033;-70
2023/05/31 07:11:21;;;;;;;;;;;;;;;;;;2022067;29;20549;-70
2023/05/31 07:12:42;;;;;;;29.20;13.32;;;;;;;;;;2019674;29;20299;-70
2023/05/31 07:14:03;;;;;;;25.10;13.77;;;;;;;;;;2017296;29;20153;-70
2023/05/31 07:15:24;;;;;;;31.77;13.80;;;;;;;;;;2022317;29;20035;-70
2023/05/31 07:16:45;;;;;;;25.05;13.00;;;;;;;;;;2020929;29;20400;-69
2023/05/31 07:18:06;;;;;;;26.75;12.98;;;;;;;;;;2010107;29;20133;-70
2023/05/31 07:19:28;;;;;;;20.90;11.63;;;;;;;;;;2022520;29;20028;-70
2023/05/31 07:20:49;;;;;;;24.35;12.82;;;;;;;;;;2021410;29;20391;-70
2023/05/31 07:22:10;;;;;;;25.92;13.60;;;;;;;;;;2022756;29;20100;-70
2023/05/31 07:23:30;;;;;;;21.80;12.32;;;;;;;;;;2020269;29;20204;-68
2023/05/31 07:24:51;;;;;;;23.13;12.52;;;;;;;;;;2023494;29;20428;-70
2023/05/31 07:26:12;;;;;;;26.48;12.63;;;;;;;;;;2021016;29;20036;-70
2023/05/31 07:27:33;;;;;;;24.42;12.45;;;;;;;;;;2015710;29;20037;-69
2023/05/31 07:28:54;;;;;;;22.40;13.40;;;;;;;;;;2015148;29;20037;-68
2023/05/31 07:30:15;;;;;;;21.98;12.57;;;;;;;;;;2015284;29;20033;-70
2023/05/31 07:31:36;;;;;;;24.13;12.80;;;;;;;;;;2008427;29;20100;-70
2023/05/31 07:32:57;;;;;;;27.10;13.45;;;;;;;;;;2015381;29;20096;-70
2023/05/31 07:34:18;;;;;;;29.95;14.15;;;;;;;;;;2013200;29;20052;-70
2023/05/31 07:35:39;;;;;;;28.48;13.85;;;;;;;;;;2015227;29;20101;-70
2023/05/31 07:37:00;;;;;;;25.02;12.38;;;;;;;;;;2010509;29;20066;-70
2023/05/31 07:38:20;;;;;;;31.55;14.38;;;;;;;;;;2016770;29;20405;-70
2023/05/31 07:39:42;;;;;;;25.58;12.95;;;;;;;;;;2023227;29;20033;-69
2023/05/31 07:41:03;;;;;;;27.63;13.02;;;;;;;;;;2017717;29;20040;-70
2023/05/31 07:42:24;;;;;;;20.00;12.00;;;;;;;;;;2022479;29;20469;-70
2023/05/31 07:43:45;;;;;;;26.40;12.70;;;;;;;;;;2022041;29;20037;-69
2023/05/31 07:45:07;;;;;;;21.98;13.07;;;;;;;;;;2021977;29;20032;-69
2023/05/31 07:46:28;;;;;;;23.10;12.20;;;;;;;;;;2021788;29;20378;-70
2023/05/31 07:47:51;;;;;;;23.33;12.25;;;;;;;;;;2022408;29;20100;-69
2023/05/31 07:49:12;;;;;;;21.83;11.77;;;;;;;;;;2022992;29;20036;-70
2023/05/31 07:50:33;;;;;;;27.60;12.40;;;;;;;;;;2020196;29;20343;-71
2023/05/31 07:51:54;;;;;;;23.77;12.27;;;;;;;;;;2014651;29;20045;-70
2023/05/31 07:53:14;;;;;;;23.60;11.50;;;;;;;;;;2015746;29;20470;-70
2023/05/31 07:54:35;;;;;;;23.92;12.13;;;;;;;;;;2021629;29;20033;-70